Time;durP1;ratioP1;P1;durP2;ratioP2;P2;SDS_P1;SDS_P2;PMS_P1;PMS_P2;Temp;Humidity;BMP_temperature;BMP_pressure;BME280_temperature;BME280_humidity;BME280_pressure;Samples;Min_cycle;Max_cycle;Signal;HPM_P1;HPM_P2
2022/11/25 00:01:30;;;;;;;16.17;3.55;;;;;;;5.82;100.00;100011.53;5053443;28;20032;-70
2022/11/25 00:03:56;;;;;;;13.93;3.65;;;;;;;5.81;100.00;100007.97;5024078;28;20017;-70
2022/11/25 00:06:31;;;;;;;10.88;3.33;;;;;;;5.79;100.00;100012.09;5066770;28;20040;-70
2022/11/25 00:09:10;;;;;;;11.60;3.50;;;;;;;5.79;100.00;100017.59;5032320;28;20021;-70
2022/11/25 00:11:40;;;;;;;16.40;3.60;;;;;;;5.77;100.00;100023.41;5034642;28;20108;-70
2022/11/25 00:14:06;;;;;;;13.30;3.55;;;;;;;5.72;100.00;100017.06;5053927;28;20078;-70
2022/11/25 00:16:32;;;;;;;13.82;3.38;;;;;;;5.69;100.00;100023.13;5054626;28;20439;-70
2022/11/25 00:18:57;;;;;;;10.55;3.38;;;;;;;5.67;100.00;100028.91;5067200;28;20028;-70
2022/11/25 00:21:27;;;;;;;14.90;3.60;;;;;;;5.66;100.00;100029.19;5066195;28;20539;-70
2022/11/25 00:24:01;;;;;;;12.82;3.55;;;;;;;5.63;100.00;100026.94;5038111;28;20440;-70
2022/11/25 00:26:27;;;;;;;16.50;4.38;;;;;;;5.59;100.00;100034.94;5049488;28;20041;-70
2022/11/25 00:28:53;;;;;;;17.08;3.10;;;;;;;5.58;100.00;100041.56;5053568;28;20044;-70
2022/11/25 00:31:23;;;;;;;14.80;3.92;;;;;;;5.57;100.00;100053.66;5058201;28;20037;-70
2022/11/25 00:33:48;;;;;;;11.73;3.45;;;;;;;5.52;100.00;100051.75;5089209;28;20122;-70
2022/11/25 00:36:22;;;;;;;15.90;4.03;;;;;;;5.50;100.00;100048.41;5043798;28;20505;-70
2022/11/25 00:38:51;;;;;;;18.08;4.50;;;;;;;5.47;100.00;100059.97;5076428;28;20520;-70
2022/11/25 00:46:45;;;;;;;15.63;3.50;;;;;;;5.42;100.00;100051.69;5064444;28;20487;-70
2022/11/25 00:49:10;;;;;;;19.02;4.28;;;;;;;5.43;100.00;100047.84;5076769;28;20024;-70
2022/11/25 00:51:36;;;;;;;19.45;3.97;;;;;;;5.41;100.00;100049.25;5078791;28;20028;-70
2022/11/25 00:54:01;;;;;;;14.20;3.13;;;;;;;5.37;100.00;100054.44;5079625;28;20490;-70
2022/11/25 00:56:27;;;;;;;15.65;3.72;;;;;;;5.34;100.00;100052.22;5046857;28;20032;-70
2022/11/25 00:58:53;;;;;;;18.00;3.33;;;;;;;5.29;100.00;100054.97;5080034;28;20024;-70
2022/11/25 01:01:18;;;;;;;13.48;3.60;;;;;;;5.29;100.00;100052.22;5064030;28;20036;-70
2022/11/25 01:03:43;;;;;;;14.68;3.45;;;;;;;5.28;100.00;100061.56;5098080;28;20028;-70
2022/11/25 01:06:09;;;;;;;19.42;3.80;;;;;;;5.25;100.00;100065.69;5098049;28;20028;-70
2022/11/25 01:08:36;;;;;;;15.45;3.05;;;;;;;5.23;100.00;100064.31;5046813;28;20047;-70
2022/11/25 01:11:04;;;;;;;16.48;3.92;;;;;;;5.23;100.00;100070.63;5081173;28;20027;-70
2022/11/25 01:13:30;;;;;;;16.75;3.13;;;;;;;5.16;100.00;100064.56;5071446;28;20031;-70
2022/11/25 01:15:55;;;;;;;17.63;3.13;;;;;;;5.15;100.00;100074.75;5059728;28;20369;-70
2022/11/25 01:18:21;;;;;;;11.38;3.00;;;;;;;5.16;100.00;100070.06;5038783;28;20514;-70
2022/11/25 01:20:46;;;;;;;14.15;3.25;;;;;;;5.12;100.00;100069.75;5063092;28;20032;-70
2022/11/25 01:23:11;;;;;;;19.15;3.70;;;;;;;5.12;100.00;100078.03;5042868;28;20032;-70
2022/11/25 01:25:38;;;;;;;14.93;2.90;;;;;;;5.09;100.00;100078.56;5064829;28;20039;-70
2022/11/25 01:28:03;;;;;;;11.80;3.13;;;;;;;5.04;100.00;100080.47;5083772;28;20400;-70
2022/11/25 01:30:29;;;;;;;12.70;3.22;;;;;;;5.05;100.00;100082.13;5042808;28;20032;-70
2022/11/25 01:32:54;;;;;;;13.32;2.58;;;;;;;5.01;100.00;100084.56;5042557;28;20068;-70
2022/11/25 01:35:20;;;;;;;10.48;2.78;;;;;;;4.99;100.00;100096.97;5062849;28;20038;-70
2022/11/25 01:37:45;;;;;;;12.27;3.05;;;;;;;4.98;100.00;100106.31;5059416;28;20041;-70
2022/11/25 01:40:11;;;;;;;10.48;2.85;;;;;;;4.98;100.00;100103.56;5028589;28;20020;-70
2022/11/25 01:42:41;;;;;;;13.63;2.67;;;;;;;4.93;100.00;100107.94;5070291;28;20060;-69
2022/11/25 01:45:22;;;;;;;13.13;2.83;;;;;;;4.93;100.00;100118.09;5059205;28;20024;-70
2022/11/25 01:47:52;;;;;;;14.10;3.40;;;;;;;4.90;100.00;100115.88;5078802;28;20097;-70
2022/11/25 01:50:17;;;;;;;13.52;2.92;;;;;;;4.88;100.00;100113.41;5059424;28;20234;-70
2022/11/25 01:52:45;;;;;;;14.00;3.08;;;;;;;4.84;100.00;100130.72;5073228;28;20043;-70
2022/11/25 01:55:18;;;;;;;11.10;3.10;;;;;;;4.85;100.00;100129.63;5078733;28;20430;-70
2022/11/25 01:57:57;;;;;;;10.80;2.42;;;;;;;4.82;100.00;100124.63;5036107;28;20035;-70
2022/11/25 02:00:22;;;;;;;11.40;2.70;;;;;;;4.81;100.00;100134.00;5079118;28;20106;-70
2022/11/25 02:02:48;;;;;;;13.55;2.67;;;;;;;4.79;100.00;100137.03;5075559;28;20042;-70
2022/11/25 02:05:18;;;;;;;12.32;3.50;;;;;;;4.81;100.00;100137.56;5043625;28;20033;-70
2022/11/25 02:07:45;;;;;;;10.50;2.90;;;;;;;4.75;100.00;100137.81;5058386;28;20098;-70
2022/11/25 02:10:13;;;;;;;15.45;2.70;;;;;;;4.76;100.00;100151.28;5064070;28;20077;-70
2022/11/25 02:12:39;;;;;;;9.93;2.92;;;;;;;4.69;100.00;100137.78;5047576;28;20028;-70
2022/11/25 02:15:06;;;;;;;9.43;2.22;;;;;;;4.72;100.00;100147.41;5050470;28;20074;-70
2022/11/25 02:17:31;;;;;;;14.75;2.80;;;;;;;4.68;100.00;100149.88;5041660;28;20028;-70
2022/11/25 02:20:03;;;;;;;17.30;2.47;;;;;;;4.65;100.00;100146.81;5061780;28;20085;-70
2022/11/25 02:22:50;;;;;;;7.20;2.30;;;;;;;4.68;100.00;100141.63;5068223;28;20438;-70
2022/11/25 02:25:23;;;;;;;12.10;2.47;;;;;;;4.65;100.00;100155.91;5063807;28;20281;-70
2022/11/25 02:28:15;;;;;;;8.95;2.40;;;;;;;4.62;100.00;100158.34;5051657;28;20546;-70
2022/11/25 02:30:41;;;;;;;11.63;2.60;;;;;;;4.57;100.00;100161.03;5061517;28;20035;-70
2022/11/25 02:33:07;;;;;;;7.80;2.38;;;;;;;4.59;100.00;100169.88;5061262;28;20043;-70
2022/11/25 02:35:34;;;;;;;15.05;2.88;;;;;;;4.53;100.00;100177.25;5037597;28;20088;-70
2022/11/25 02:38:08;;;;;;;10.68;2.50;;;;;;;4.54;100.00;100173.44;5065343;28;20029;-70
2022/11/25 02:40:36;;;;;;;14.30;3.13;;;;;;;4.51;100.00;100171.19;5066102;28;20038;-70
2022/11/25 02:43:02;;;;;;;16.85;2.90;;;;;;;4.48;100.00;100175.31;5026981;28;20032;-70
2022/11/25 02:45:59;;;;;;;13.10;2.67;;;;;;;4.51;100.00;100179.41;5053380;28;20024;-70
2022/11/25 02:48:26;;;;;;;9.10;2.40;;;;;;;4.50;100.00;100183.28;5065688;28;20042;-69
2022/11/25 02:50:51;;;;;;;10.50;2.22;;;;;;;4.43;100.00;100185.41;5049117;28;20043;-70
2022/11/25 02:53:17;;;;;;;10.38;2.20;;;;;;;4.45;100.00;100177.72;5045279;28;20667;-70
2022/11/25 02:55:42;;;;;;;12.65;2.53;;;;;;;4.41;100.00;100184.84;5040135;28;20028;-70
2022/11/25 02:58:08;;;;;;;11.27;2.83;;;;;;;4.40;100.00;100199.69;5064654;28;20031;-70
2022/11/25 03:00:33;;;;;;;9.65;2.33;;;;;;;4.43;100.00;100196.41;5063272;28;20039;-70
2022/11/25 03:02:59;;;;;;;11.10;2.03;;;;;;;4.45;100.00;100202.47;5061167;28;20138;-70
2022/11/25 03:05:24;;;;;;;11.93;2.17;;;;;;;4.43;100.00;100207.41;5056780;28;20081;-70
2022/11/25 03:07:50;;;;;;;11.90;2.55;;;;;;;4.39;100.00;100209.84;5034393;28;20050;-70
2022/11/25 03:10:16;;;;;;;10.68;2.42;;;;;;;4.35;100.00;100210.66;5068385;28;20422;-70
2022/11/25 03:12:41;;;;;;;13.85;2.67;;;;;;;4.34;100.00;100217.22;5061007;28;20115;-70
2022/11/25 03:15:07;;;;;;;15.38;3.03;;;;;;;4.39;100.00;100220.03;5108501;28;20020;-69
2022/11/25 03:17:33;;;;;;;13.70;2.30;;;;;;;4.32;100.00;100233.13;5051269;28;20034;-70
2022/11/25 03:19:58;;;;;;;12.57;2.95;;;;;;;4.30;100.00;100232.59;5048585;28;20037;-70
2022/11/25 03:22:24;;;;;;;12.57;2.70;;;;;;;4.33;100.00;100229.31;5080213;28;20433;-70
2022/11/25 03:24:49;;;;;;;13.05;3.08;;;;;;;4.29;100.00;100230.91;5115662;28;20027;-70
2022/11/25 03:27:14;;;;;;;10.57;2.45;;;;;;;4.24;100.00;100229.78;5045009;28;20098;-69
2022/11/25 03:29:40;;;;;;;8.13;2.65;;;;;;;4.27;100.00;100239.44;5046836;28;20039;-70
2022/11/25 03:32:05;;;;;;;14.55;3.88;;;;;;;4.25;100.00;100242.44;5026404;28;20025;-70
2022/11/25 03:34:31;;;;;;;9.65;3.00;;;;;;;4.24;100.00;100240.78;5067593;28;20039;-69
2022/11/25 03:36:56;;;;;;;10.25;3.15;;;;;;;4.21;100.00;100245.97;5059657;28;20040;-70
2022/11/25 03:39:22;;;;;;;11.23;3.08;;;;;;;4.20;100.00;100255.28;5080201;28;20027;-69
2022/11/25 03:41:48;;;;;;;17.88;3.58;;;;;;;4.17;100.00;100256.63;5062877;28;20085;-70
2022/11/25 03:44:13;;;;;;;11.23;3.03;;;;;;;4.20;100.00;100253.38;5040775;28;20031;-70
2022/11/25 03:46:39;;;;;;;11.60;3.10;;;;;;;4.21;100.00;100256.97;5051653;28;20066;-70
2022/11/25 03:49:04;;;;;;;12.15;3.00;;;;;;;4.19;100.00;100262.72;5055103;28;20066;-70
2022/11/25 03:51:30;;;;;;;13.40;2.67;;;;;;;4.15;100.00;100256.06;5070209;28;20029;-69
2022/11/25 03:53:55;;;;;;;10.55;2.65;;;;;;;4.17;100.00;100264.88;5066430;28;20021;-69
2022/11/25 03:56:21;;;;;;;10.30;2.90;;;;;;;4.19;100.00;100270.94;5056872;28;20029;-70
2022/11/25 03:58:46;;;;;;;9.48;2.17;;;;;;;4.20;100.00;100272.59;5063049;28;20365;-70
2022/11/25 04:01:12;;;;;;;11.10;2.75;;;;;;;4.16;100.00;100271.47;5057200;28;20024;-70
2022/11/25 04:03:37;;;;;;;11.13;3.13;;;;;;;4.12;100.00;100274.97;5056965;28;20028;-70
2022/11/25 04:06:03;;;;;;;10.50;2.50;;;;;;;4.13;100.00;100273.91;5054817;28;20496;-70
2022/11/25 04:08:28;;;;;;;11.38;2.63;;;;;;;4.11;100.00;100281.56;5060928;28;20089;-69
2022/11/25 04:10:54;;;;;;;8.82;2.53;;;;;;;4.13;100.00;100287.66;5075881;28;20032;-69
2022/11/25 04:13:19;;;;;;;8.00;2.35;;;;;;;4.09;100.00;100286.50;5060806;28;20029;-70
2022/11/25 04:15:48;;;;;;;8.70;2.65;;;;;;;4.09;100.00;100287.31;5044224;28;20024;-69
2022/11/25 04:18:13;;;;;;;9.95;2.97;;;;;;;4.09;100.00;100298.31;5044553;28;20074;-69
2022/11/25 04:20:39;;;;;;;11.52;3.38;;;;;;;4.10;100.00;100297.25;5057201;28;20396;-69
2022/11/25 04:23:07;;;;;;;8.35;2.55;;;;;;;4.07;100.00;100305.16;5050032;28;20038;-69
2022/11/25 04:25:33;;;;;;;12.05;2.60;;;;;;;4.05;100.00;100301.84;5043304;28;20546;-70
2022/11/25 04:27:59;;;;;;;10.98;2.30;;;;;;;4.05;100.00;100301.84;5070833;28;20107;-69
2022/11/25 04:30:25;;;;;;;10.43;2.55;;;;;;;4.03;100.00;100313.09;5040601;28;20107;-69
2022/11/25 04:32:50;;;;;;;11.20;2.33;;;;;;;4.00;100.00;100311.66;5062133;28;20090;-70
2022/11/25 04:35:16;;;;;;;10.90;3.03;;;;;;;4.02;100.00;100319.69;5051321;28;20024;-69
2022/11/25 04:37:41;;;;;;;8.68;2.22;;;;;;;4.00;100.00;100317.16;5073056;28;20020;-70
2022/11/25 04:40:07;;;;;;;9.05;2.38;;;;;;;3.98;100.00;100329.50;5083822;28;20032;-70
2022/11/25 04:42:38;;;;;;;8.32;2.25;;;;;;;4.00;100.00;100327.34;5053056;28;20027;-69
2022/11/25 04:45:11;;;;;;;11.13;2.72;;;;;;;3.98;100.00;100335.84;5072352;28;20052;-69
2022/11/25 04:47:37;;;;;;;9.27;2.22;;;;;;;3.97;100.00;100336.09;5081771;28;20119;-70
2022/11/25 04:50:04;;;;;;;9.20;2.45;;;;;;;3.99;100.00;100342.16;5037081;28;20111;-69
2022/11/25 04:52:29;;;;;;;8.05;2.15;;;;;;;3.95;100.00;100341.81;5070905;28;20457;-70
2022/11/25 04:54:55;;;;;;;12.80;2.38;;;;;;;3.93;100.00;100340.44;5069480;28;20093;-70
2022/11/25 04:57:20;;;;;;;7.63;2.50;;;;;;;3.96;100.00;100343.50;5050180;28;20032;-70
2022/11/25 04:59:46;;;;;;;9.43;2.40;;;;;;;4.01;100.00;100343.59;5050024;28;20444;-70
2022/11/25 05:02:21;;;;;;;13.07;2.65;;;;;;;3.98;100.00;100341.34;5083285;28;20031;-70
2022/11/25 05:04:47;;;;;;;7.90;2.33;;;;;;;3.96;100.00;100348.19;5066474;28;20073;-70
2022/11/25 05:07:13;;;;;;;14.07;2.70;;;;;;;3.92;100.00;100353.31;5069764;28;20127;-69
2022/11/25 05:09:39;;;;;;;12.57;2.60;;;;;;;3.87;100.00;100349.69;5083334;28;20030;-70
2022/11/25 05:12:05;;;;;;;10.65;2.00;;;;;;;3.90;100.00;100354.66;5083269;28;20024;-69
2022/11/25 05:14:31;;;;;;;10.35;2.40;;;;;;;3.90;100.00;100346.41;5066690;28;20030;-70
2022/11/25 05:16:56;;;;;;;8.60;2.30;;;;;;;3.88;100.00;100348.63;5099943;28;20027;-70
2022/11/25 05:19:22;;;;;;;14.55;2.63;;;;;;;3.91;100.00;100353.59;5047015;28;20023;-70
2022/11/25 05:21:47;;;;;;;13.98;2.30;;;;;;;3.89;100.00;100353.00;5076298;28;20384;-70
2022/11/25 05:24:13;;;;;;;7.75;2.47;;;;;;;3.88;100.00;100354.09;5066052;28;20023;-70
2022/11/25 05:26:38;;;;;;;13.45;2.70;;;;;;;3.87;100.00;100357.94;5048434;28;20090;-70
2022/11/25 05:29:04;;;;;;;11.48;3.03;;;;;;;3.86;100.00;100364.50;5064370;28;20146;-70
2022/11/25 05:31:29;;;;;;;14.70;2.60;;;;;;;3.85;100.00;100365.59;5105066;28;20050;-70
2022/11/25 05:33:55;;;;;;;13.32;3.25;;;;;;;3.84;100.00;100378.50;5078098;28;20044;-70
2022/11/25 05:36:20;;;;;;;12.43;3.08;;;;;;;3.81;100.00;100382.56;5059288;28;20103;-70
2022/11/25 05:38:46;;;;;;;14.55;3.40;;;;;;;3.84;100.00;100380.41;5042733;28;20036;-70
2022/11/25 05:41:12;;;;;;;9.38;2.53;;;;;;;3.80;100.00;100389.16;5042545;28;20036;-70
2022/11/25 05:43:37;;;;;;;10.85;2.92;;;;;;;3.83;100.00;100382.34;5075259;28;20028;-70
2022/11/25 05:46:06;;;;;;;9.20;2.60;;;;;;;3.82;100.00;100386.19;5062494;28;20035;-70
2022/11/25 05:48:32;;;;;;;10.48;3.15;;;;;;;3.84;100.00;100389.47;5049345;28;20050;-70
2022/11/25 05:51:01;;;;;;;8.63;2.30;;;;;;;3.82;100.00;100391.66;5035631;28;20469;-69
2022/11/25 05:53:27;;;;;;;11.68;2.72;;;;;;;3.83;100.00;100403.47;5029193;28;20051;-69
2022/11/25 05:55:56;;;;;;;14.05;3.13;;;;;;;3.81;100.00;100400.97;5042240;28;20576;-70
2022/11/25 05:58:22;;;;;;;13.35;2.65;;;;;;;3.88;100.00;100409.88;5048328;28;20392;-69
2022/11/25 06:00:48;;;;;;;11.40;2.55;;;;;;;3.82;100.00;100416.41;5056488;28;20024;-70
2022/11/25 06:03:13;;;;;;;14.50;2.90;;;;;;;3.84;100.00;100418.88;5062363;28;20034;-70
2022/11/25 06:05:40;;;;;;;11.70;2.60;;;;;;;3.83;100.00;100425.47;5026386;28;20029;-70
2022/11/25 06:08:06;;;;;;;11.38;2.35;;;;;;;3.84;100.00;100427.13;5058726;28;20744;-69
2022/11/25 06:10:31;;;;;;;12.45;3.17;;;;;;;3.84;100.00;100432.59;5056656;28;20028;-69
2022/11/25 06:12:57;;;;;;;8.40;2.70;;;;;;;3.83;100.00;100430.97;5062303;28;20043;-70
2022/11/25 06:15:22;;;;;;;12.50;2.80;;;;;;;3.86;100.00;100442.28;5054513;28;20021;-70
2022/11/25 06:17:47;;;;;;;13.55;2.25;;;;;;;3.80;100.00;100446.03;5046657;28;20036;-70
2022/11/25 06:20:13;;;;;;;13.65;2.33;;;;;;;3.80;100.00;100441.34;5041375;28;20039;-70
2022/11/25 06:22:38;;;;;;;9.90;2.47;;;;;;;3.88;100.00;100450.28;5090760;28;20038;-70
2022/11/25 06:25:04;;;;;;;9.77;2.47;;;;;;;3.85;100.00;100450.78;5094831;28;20024;-70
2022/11/25 06:27:30;;;;;;;10.45;2.30;;;;;;;3.86;100.00;100455.19;5048055;28;20028;-69
2022/11/25 06:29:55;;;;;;;11.45;2.25;;;;;;;3.81;100.00;100462.25;5040832;28;20035;-69
2022/11/25 06:32:21;;;;;;;9.90;1.88;;;;;;;3.79;100.00;100461.69;5058168;28;20032;-72
2022/11/25 06:34:46;;;;;;;9.63;2.63;;;;;;;3.78;100.00;100465.50;5045944;28;20620;-70
2022/11/25 06:37:12;;;;;;;12.98;2.40;;;;;;;3.77;100.00;100480.31;5044943;28;20028;-70
2022/11/25 06:39:37;;;;;;;12.38;2.40;;;;;;;3.73;100.00;100484.66;5050855;28;20102;-70
2022/11/25 06:42:03;;;;;;;8.55;2.20;;;;;;;3.72;100.00;100490.41;5028139;28;20622;-70
2022/11/25 06:44:28;;;;;;;7.40;1.80;;;;;;;3.70;100.00;100489.81;5031731;28;20103;-70
2022/11/25 06:46:54;;;;;;;9.50;2.33;;;;;;;3.73;100.00;100501.16;5077840;28;20043;-70
2022/11/25 06:49:19;;;;;;;9.48;2.40;;;;;;;3.66;100.00;100505.94;5068530;28;20416;-69
2022/11/25 06:51:44;;;;;;;8.82;2.15;;;;;;;3.68;100.00;100509.28;5078123;28;20027;-70
2022/11/25 06:54:10;;;;;;;12.52;2.67;;;;;;;3.65;100.00;100504.31;5040953;28;20037;-70
2022/11/25 06:56:35;;;;;;;11.57;2.33;;;;;;;3.66;100.00;100507.88;5044767;28;20384;-70
2022/11/25 06:59:02;;;;;;;14.60;2.45;;;;;;;3.64;100.00;100499.88;5028331;28;20028;-70
2022/11/25 07:01:28;;;;;;;10.48;2.10;;;;;;;3.61;100.00;100502.28;5061599;28;20032;-70
2022/11/25 07:03:58;;;;;;;9.43;2.25;;;;;;;3.62;100.00;100502.03;5077476;28;20024;-70
2022/11/25 07:06:23;;;;;;;9.30;2.00;;;;;;;3.57;100.00;100516.50;5041389;28;20637;-70
2022/11/25 07:08:49;;;;;;;9.68;2.25;;;;;;;3.55;100.00;100517.84;5055385;28;20036;-70
2022/11/25 07:11:25;;;;;;;7.60;2.67;;;;;;;3.56;100.00;100525.00;5041137;28;20029;-70
2022/11/25 07:13:54;;;;;;;13.65;2.50;;;;;;;3.58;100.00;100539.31;5041900;28;20024;-70
2022/11/25 07:16:20;;;;;;;12.65;2.30;;;;;;;3.55;100.00;100537.88;5064412;28;20043;-70
2022/11/25 07:18:45;;;;;;;8.13;2.10;;;;;;;3.52;100.00;100543.06;5037836;28;20029;-69
2022/11/25 07:21:12;;;;;;;10.02;2.28;;;;;;;3.53;100.00;100563.94;5060842;28;20024;-70
2022/11/25 07:23:38;;;;;;;13.30;2.47;;;;;;;3.53;100.00;100556.53;5040449;28;20120;-70
2022/11/25 07:26:05;;;;;;;11.57;2.55;;;;;;;3.52;100.00;100571.34;5046069;28;20060;-70
2022/11/25 07:28:31;;;;;;;11.43;2.70;;;;;;;3.54;100.00;100573.84;5019613;28;20115;-70
2022/11/25 07:31:05;;;;;;;12.20;2.70;;;;;;;3.51;100.00;100574.31;5057290;28;20051;-70
2022/11/25 07:33:31;;;;;;;10.38;2.83;;;;;;;3.53;100.00;100577.66;5079590;28;20059;-70
2022/11/25 07:36:01;;;;;;;11.25;2.20;;;;;;;3.51;100.00;100582.56;5080654;28;20032;-70
2022/11/25 07:38:26;;;;;;;13.63;2.78;;;;;;;3.47;100.00;100587.72;5060560;28;20105;-70
2022/11/25 07:40:52;;;;;;;7.95;2.63;;;;;;;3.46;100.00;100596.22;5090740;28;20065;-70
2022/11/25 07:43:17;;;;;;;12.43;2.40;;;;;;;3.47;100.00;100608.84;5086727;27;20057;-70
2022/11/25 07:45:43;;;;;;;11.15;2.47;;;;;;;3.48;100.00;100616.00;5101758;28;20027;-70
2022/11/25 07:48:08;;;;;;;11.40;2.30;;;;;;;3.45;100.00;100621.97;5081361;28;20055;-70
2022/11/25 07:50:34;;;;;;;12.93;2.75;;;;;;;3.51;100.00;100631.97;5075455;28;20387;-70
2022/11/25 07:52:59;;;;;;;12.75;3.05;;;;;;;3.46;100.00;100626.41;5053231;28;20032;-70
2022/11/25 07:55:25;;;;;;;12.50;3.50;;;;;;;3.43;100.00;100633.22;5056988;28;20050;-70
2022/11/25 07:57:50;;;;;;;12.68;2.97;;;;;;;3.48;100.00;100635.22;5082206;28;20047;-70
2022/11/25 08:00:16;;;;;;;12.00;2.65;;;;;;;3.48;100.00;100649.81;5064620;28;20495;-70
2022/11/25 08:02:41;;;;;;;9.07;2.47;;;;;;;3.52;100.00;100650.16;5094883;28;20028;-69
2022/11/25 08:05:08;;;;;;;14.85;3.50;;;;;;;3.53;100.00;100651.81;5075500;28;20020;-69
2022/11/25 08:07:33;;;;;;;12.70;3.70;;;;;;;3.60;100.00;100652.50;5051360;28;20030;-70
2022/11/25 08:09:58;;;;;;;17.80;4.00;;;;;;;3.55;100.00;100661.47;5084185;28;20032;-70
2022/11/25 08:12:24;;;;;;;18.58;4.40;;;;;;;3.63;100.00;100679.47;5067737;28;20032;-70
2022/11/25 08:14:49;;;;;;;13.88;4.75;;;;;;;3.65;100.00;100677.34;5064395;28;20028;-70
2022/11/25 08:17:15;;;;;;;16.15;4.32;;;;;;;3.69;100.00;100683.16;5078691;28;20032;-70
2022/11/25 08:19:40;;;;;;;16.75;4.20;;;;;;;3.73;100.00;100679.69;5067654;28;20565;-70
2022/11/25 08:22:06;;;;;;;19.38;4.22;;;;;;;3.81;100.00;100687.53;5084318;28;20038;-70
2022/11/25 08:24:31;;;;;;;16.88;4.28;;;;;;;3.89;100.00;100683.56;5063896;28;20023;-70
2022/11/25 08:27:00;;;;;;;20.42;4.55;;;;;;;3.95;100.00;100693.56;5087382;28;20070;-70
2022/11/25 08:29:25;;;;;;;13.27;3.25;;;;;;;4.10;100.00;100693.03;5101725;28;20058;-69
2022/11/25 08:31:51;;;;;;;14.20;3.72;;;;;;;4.17;100.00;100698.34;5067292;28;20023;-70
2022/11/25 08:34:18;;;;;;;13.25;3.55;;;;;;;4.27;100.00;100700.47;5058149;28;20040;-70
2022/11/25 08:36:44;;;;;;;14.57;3.42;;;;;;;4.35;100.00;100708.31;5096677;28;20057;-70
2022/11/25 08:39:10;;;;;;;12.05;3.70;;;;;;;4.48;100.00;100717.09;5080975;27;20468;-70
2022/11/25 08:41:36;;;;;;;12.23;3.63;;;;;;;4.55;100.00;100708.66;5123558;27;20024;-70
2022/11/25 08:44:02;;;;;;;10.77;3.75;;;;;;;4.66;100.00;100715.19;5084127;28;20020;-70
2022/11/25 08:46:30;;;;;;;16.40;3.45;;;;;;;4.76;100.00;100715.31;5099027;28;20036;-70
2022/11/25 08:48:56;;;;;;;12.20;3.72;;;;;;;4.86;100.00;100715.50;5083786;28;20066;-70
2022/11/25 08:51:23;;;;;;;17.27;3.95;;;;;;;4.97;100.00;100710.16;5048563;28;20519;-70
2022/11/25 08:53:52;;;;;;;14.43;3.95;;;;;;;5.06;100.00;100712.22;5083382;28;20387;-70
2022/11/25 08:56:18;;;;;;;15.63;3.35;;;;;;;5.18;100.00;100716.78;5083979;28;20028;-70
2022/11/25 08:58:44;;;;;;;15.95;4.07;;;;;;;5.28;100.00;100722.44;5066394;28;20039;-70
2022/11/25 09:01:10;;;;;;;12.70;3.67;;;;;;;5.39;100.00;100724.25;5045439;28;20028;-70
2022/11/25 09:03:37;;;;;;;14.80;3.95;;;;;;;5.49;100.00;100729.06;5060600;27;20027;-70
2022/11/25 09:06:03;;;;;;;12.52;3.55;;;;;;;5.59;100.00;100726.44;5101920;28;20036;-70
2022/11/25 09:08:30;;;;;;;19.23;3.97;;;;;;;5.70;100.00;100746.69;5100082;28;20038;-70
2022/11/25 09:10:55;;;;;;;19.45;4.07;;;;;;;5.80;100.00;100760.63;5046743;28;20027;-70
2022/11/25 09:13:21;;;;;;;17.20;3.72;;;;;;;5.92;100.00;100766.00;5079781;28;20039;-70
2022/11/25 09:15:47;;;;;;;19.48;3.90;;;;;;;6.03;100.00;100773.34;5116187;28;20471;-70
2022/11/25 09:18:14;;;;;;;13.60;3.22;;;;;;;6.14;100.00;100780.63;5079727;28;20035;-70
2022/11/25 09:20:39;;;;;;;20.17;4.00;;;;;;;6.25;100.00;100787.94;5046337;28;20028;-70
2022/11/25 09:23:06;;;;;;;18.02;4.72;;;;;;;6.37;100.00;100785.00;5091960;28;20565;-70
2022/11/25 09:25:31;;;;;;;20.88;4.60;;;;;;;6.49;100.00;100790.38;5094481;28;20060;-70
2022/11/25 09:27:57;;;;;;;14.60;3.30;;;;;;;6.60;100.00;100789.41;5079498;28;20039;-70
2022/11/25 09:30:23;;;;;;;18.08;3.80;;;;;;;6.73;100.00;100793.66;5062923;28;20020;-70
2022/11/25 09:32:50;;;;;;;12.82;3.35;;;;;;;6.84;100.00;100798.19;5049090;28;20051;-70
2022/11/25 09:35:16;;;;;;;17.55;3.85;;;;;;;6.96;100.00;100797.19;5082312;28;20032;-70
2022/11/25 09:37:42;;;;;;;22.60;4.22;;;;;;;7.08;100.00;100808.91;5066284;28;20032;-70
2022/11/25 09:40:10;;;;;;;20.17;3.90;;;;;;;7.20;100.00;100815.06;5062036;28;20027;-70
2022/11/25 09:48:54;;;;;;;18.70;4.18;;;;;;;7.60;100.00;100836.66;5088975;28;20031;-70
2022/11/25 09:51:23;;;;;;;18.10;4.10;;;;;;;7.72;100.00;100839.19;5082623;28;20060;-70
2022/11/25 09:54:01;;;;;;;14.48;4.32;;;;;;;7.86;100.00;100842.31;5082675;28;20019;-70
2022/11/25 09:56:52;;;;;;;22.65;4.45;;;;;;;7.99;100.00;100844.59;5099267;28;20054;-70
2022/11/25 09:59:30;;;;;;;19.35;3.60;;;;;;;8.11;100.00;100840.75;5081105;28;20437;-70
2022/11/25 10:02:01;;;;;;;21.17;4.28;;;;;;;8.24;100.00;100841.09;5061707;28;20439;-71
2022/11/25 10:04:36;;;;;;;18.85;3.75;;;;;;;8.37;100.00;100850.03;5091441;28;20565;-70
2022/11/25 10:07:03;;;;;;;19.65;4.18;;;;;;;8.47;100.00;100856.47;5076146;28;20036;-70
2022/11/25 10:09:31;;;;;;;22.15;4.45;;;;;;;8.58;100.00;100862.88;5075399;28;20590;-70
2022/11/25 10:12:04;;;;;;;19.98;4.35;;;;;;;8.68;100.00;100868.41;5062495;28;20084;-71
2022/11/25 10:14:43;;;;;;;19.15;4.25;;;;;;;8.80;100.00;100878.41;5098682;28;20433;-71
2022/11/25 10:17:12;;;;;;;19.65;4.05;;;;;;;8.89;100.00;100885.09;5100380;28;20031;-70
2022/11/25 10:19:52;;;;;;;24.63;4.32;;;;;;;8.99;100.00;100892.59;5082299;28;20106;-71
2022/11/25 10:22:25;;;;;;;21.60;4.68;;;;;;;9.09;100.00;100901.75;5077829;28;20095;-71
2022/11/25 10:24:53;;;;;;;26.08;5.30;;;;;;;9.20;100.00;100910.09;5074294;28;20081;-71
2022/11/25 10:27:26;;;;;;;17.20;3.60;;;;;;;9.27;100.00;100914.22;5064878;28;20066;-71
2022/11/25 10:30:22;;;;;;;24.23;4.88;;;;;;;9.39;100.00;100925.09;5078151;28;20020;-71
2022/11/25 10:32:52;;;;;;;18.85;3.88;;;;;;;9.49;100.00;100921.47;5101563;28;20071;-71
2022/11/25 10:35:23;;;;;;;19.90;4.47;;;;;;;9.57;100.00;100937.56;5077738;28;20043;-71
2022/11/25 10:37:53;;;;;;;24.27;4.70;;;;;;;9.65;100.00;100945.31;5069728;28;20051;-71
2022/11/25 10:40:19;;;;;;;21.42;4.20;;;;;;;9.74;100.00;100948.38;5065181;28;20069;-71
2022/11/25 10:42:44;;;;;;;20.63;4.10;;;;;;;9.81;100.00;100941.44;5060480;27;20467;-71
2022/11/25 10:45:10;;;;;;;23.50;4.53;;;;;;;9.89;100.00;100951.16;5079005;28;20384;-71
2022/11/25 10:47:51;;;;;;;24.63;4.20;;;;;;;9.96;100.00;100962.78;5044557;28;20036;-70
2022/11/25 10:50:19;;;;;;;26.05;3.92;;;;;;;10.05;100.00;100974.13;5094203;28;20036;-71
2022/11/25 10:52:50;;;;;;;24.48;4.78;;;;;;;10.12;100.00;100969.16;5061131;28;20024;-71
2022/11/25 10:55:20;;;;;;;23.90;4.50;;;;;;;10.19;100.00;100971.63;5064227;28;20023;-71
2022/11/25 10:57:46;;;;;;;16.48;3.95;;;;;;;10.27;100.00;100982.19;5075275;28;20498;-71
2022/11/25 11:00:36;;;;;;;27.77;4.00;;;;;;;10.34;100.00;100982.75;5051124;27;20118;-70
2022/11/25 11:03:31;;;;;;;21.60;4.13;;;;;;;10.40;100.00;100989.13;5066790;28;20026;-71
2022/11/25 11:05:56;;;;;;;17.60;3.22;;;;;;;10.48;100.00;100983.81;5080689;28;20035;-71
2022/11/25 11:08:42;;;;;;;16.75;3.53;;;;;;;10.57;100.00;100983.25;5071911;28;20027;-71
2022/11/25 11:11:10;;;;;;;19.83;3.72;;;;;;;10.62;100.00;100983.22;5047720;28;20118;-71
2022/11/25 11:13:35;;;;;;;20.55;4.05;;;;;;;10.70;100.00;100990.97;5115854;28;20401;-71
2022/11/25 11:16:01;;;;;;;18.85;3.53;;;;;;;10.76;100.00;100994.56;5080188;28;20024;-71
2022/11/25 11:18:39;;;;;;;21.58;3.95;;;;;;;10.79;100.00;100992.03;5053604;28;20028;-71
2022/11/25 11:21:06;;;;;;;18.27;3.17;;;;;;;10.87;100.00;100997.03;5097672;28;20034;-71
2022/11/25 11:23:45;;;;;;;17.15;3.45;;;;;;;10.93;100.00;101004.22;5063875;28;20039;-70
2022/11/25 11:26:11;;;;;;;22.00;4.65;;;;;;;11.04;100.00;101002.22;5040448;28;20033;-71
2022/11/25 11:28:38;;;;;;;25.65;3.65;;;;;;;11.20;100.00;101011.31;5069670;28;20032;-71
2022/11/25 11:31:16;;;;;;;21.15;3.65;;;;;;;11.70;100.00;101012.13;5060375;28;20032;-71